Terminal Aerodrome Forecast
Issued by NWS Austin/San Antonio, TX

Home | Current Version | Previous Version | Text Only | Print | Product List | Glossary On
Versions: 1 2 3 4 5 6 7 8 9 10 11 12 13 14 15 16 17 18 19 20 21 22 23 24 25
000
FTUS44 KEWX 220700 AAB
TAFSAT
TAF AMD
KSAT 220711Z 2207/2312 17010KT P6SM BKN016
     FM221600 18010KT P6SM SCT040
     FM221800 17010G20KT P6SM FEW080
     FM230000 15015G25KT P6SM SKC
     FM230600 17010KT P6SM SCT015
     FM231000 18007KT P6SM BKN015=

USA.gov is the U.S. government's official web portal to all federal, state and local government web resources and services.